• Join FlightAware (Why Join?)
  • Login
  • US Flag 
12:45AM EDT


 

Airport Tracker/Info


-or-


 

Live Flight TrackerFlight Track Log ✈ SWA3675 ✈ 29-Apr-2013 ✈ KALB - KBWI

Flight Track Log - Related Links

Times and Time Zones

All times are in EDT time to prevent confusion due to time zone crossing. See the SWA3675 flight status page for this flight to view local times or setup timezone preferences in your user account.

Time Position Orientation Groundspeed Altitude Reporting Facility
EDT Latitude Longitude Course Direction KTS MPH feet Rate Location/Type
06:18PM 42.7339 -73.8081 260° West 127 146 1,800  Level Boston Center
06:19PM 42.7272 -73.8589 260° West 218 251 6,100 3,720 Climbing Boston Center
06:19PM 42.7539 -73.8850 324° Northwest 218 251 8,400 3,840 Climbing Boston Center
06:20PM 42.8119 -73.9119 341° North 218 251 12,100 3,780 Climbing Boston Center
06:21PM 42.8583 -73.8733 31° Northeast 191 220 16,000 3,060 Climbing Boston Center
06:22PM 42.7942 -73.8350 156° South 96 110 18,300 2,220 Climbing Boston Center
06:23PM 42.6944 -73.8131 171° South 231 266 20,500 2,700 Climbing Boston Center
06:24PM 42.5883 -73.7908 171° South 320 368 23,800 3,600 Climbing Boston Center
06:25PM 42.4822 -73.7661 170° South 361 415 27,700 2,100 Climbing Boston Center
06:26PM 42.3681 -73.7411 171° South 397 457 28,000 120 Climbing Boston Center
06:27PM 42.2411 -73.7106 170° South 449 517 28,000  Level Boston Center
06:28PM 42.1353 -73.6803 168° South 449 517 28,000  Level Boston Center
06:29PM 42.0228 -73.6614 173° South 449 517 28,000  Level Boston Center
06:30PM 41.8981 -73.6339 171° South 435 501 28,000  Level Boston Center
06:31PM 41.7878 -73.6094 171° South 422 486 28,000  Level Boston Center
06:32PM 41.6775 -73.5992 176° South 408 470 28,000  Level Boston Center
06:33PM 41.5672 -73.5972 179° South 402 463 28,000  Level Boston Center
06:36PM 41.3317 -73.6944 197° South 368 423 28,000  Level New York Center
06:37PM 41.2561 -73.7958 225° Southwest 376 433 28,000  Level New York Center
06:38PM 41.1828 -73.8947 225° Southwest 376 433 28,000  Level New York Center
06:39PM 41.1092 -73.9931 225° Southwest 381 438 28,000  Level New York Center
06:40PM 41.0336 -74.0911 224° Southwest 381 438 28,000 -120 Level New York Center
06:41PM 40.9475 -74.1942 222° Southwest 376 433 27,800 -600 Descending New York Center
06:42PM 40.8717 -74.2944 225° Southwest 382 440 26,900 -960 Descending New York Center
06:43PM 40.7892 -74.4000 224° Southwest 397 457 26,000 -480 Descending New York Center
06:44PM 40.7189 -74.5194 232° Southwest 403 464 26,000  Level New York Center
06:45PM 40.6422 -74.6300 228° Southwest 415 478 26,000  Level New York Center
06:46PM 40.5678 -74.7433 229° Southwest 415 478 26,000  Level New York Center
06:47PM 40.4911 -74.8536 228° Southwest 420 483 26,000 -420 Level New York Center
06:48PM 40.4161 -74.9664 229° Southwest 420 483 25,200 -960 Descending New York Center
06:49PM 40.3392 -75.0758 227° Southwest 420 483 24,100 -1,080 Descending New York Center
06:50PM 40.2667 -75.1831 228° Southwest 414 476 23,100 -1,860 Descending New York Center
06:51PM 40.1936 -75.2897 228° Southwest 402 463 20,400 -2,580 Descending New York Center
06:52PM 40.1278 -75.3806 227° Southwest 397 457 18,000 -1,260 Descending New York Center
06:53PM 40.0525 -75.4867 227° Southwest 374 430 18,000 -60 Level New York Center
06:54PM 39.9908 -75.5692 226° Southwest 362 417 17,900 -480 Descending New York Center
06:55PM 39.9181 -75.6697 227° Southwest 357 411 17,100 -900 Descending New York Center
06:56PM 39.8681 -75.7664 236° Southwest 357 411 16,200 -1,020 Descending New York Center
06:58PM 39.7667 -75.9667 237° Southwest 347 399 14,200 -1,440 Descending Potomac TRACON
06:59PM 39.7167 -76.0667 237° Southwest 343 395 12,300 -1,320 Descending Potomac TRACON
07:00PM 39.6667 -76.1667 237° Southwest 307 353 11,700 -840 Descending Potomac TRACON
07:01PM 39.6500 -76.2667 258° West 296 341 10,600 -1,080 Descending Potomac TRACON
07:02PM 39.6333 -76.3667 258° West 287 330 9,600 -1,080 Descending Potomac TRACON
07:03PM 39.6167 -76.4667 258° West 284 327 8,600 -1,020 Descending Potomac TRACON
07:04PM 39.6000 -76.5667 258° West 282 325 7,600 -960 Descending Potomac TRACON
07:04PM 39.5667 -76.6500 243° Southwest 278 320 6,800 -1,260 Descending Potomac TRACON
07:05PM 39.5333 -76.7167 237° Southwest 273 314 5,400 -1,440 Descending Potomac TRACON
07:06PM 39.4667 -76.8000 224° Southwest 264 304 4,000 -720 Descending Potomac TRACON
07:07PM 39.4167 -76.8667 226° Southwest 258 297 4,000  Level Potomac TRACON
07:08PM 39.3667 -76.9167 218° Southwest 237 273 4,000  Level Potomac TRACON
07:09PM 39.3167 -76.9500 207° Southwest 219 252 4,000  Level Potomac TRACON
07:10PM 39.2667 -77.0000 218° Southwest 202 232 4,000  Level Potomac TRACON
07:11PM 39.2167 -77.0000 180° South 189 217 4,000 -300 Level Potomac TRACON
07:12PM 39.2000 -76.9500 113° Southeast 180 207 3,500 -900 Descending Potomac TRACON
07:13PM 39.1833 -76.9000 113° Southeast 180 207 2,300 -780 Descending Potomac TRACON
07:14PM 39.1833 -76.8333 90° East 174 200 2,000 -480 Descending Potomac TRACON
07:15PM 39.1833 -76.7833 90° East 144 166 1,500 -600 Descending Potomac TRACON
07:16PM 39.1833 -76.7333 90° East 114 131 800 -660 Descending Potomac TRACON